Time;durP1;ratioP1;P1;durP2;ratioP2;P2;SDS_P1;SDS_P2;PMS_P1;PMS_P2;Temp;Humidity;BMP_temperature;BMP_pressure;BME280_temperature;BME280_humidity;BME280_pressure;Samples;Min_cycle;Max_cycle;Signal;HPM_P1;HPM_P2
2024/01/23 00:01:43;;;;;;;17.60;11.93;;;;;;;;;;5097234;28;20706;-80
2024/01/23 00:04:11;;;;;;;15.87;11.80;;;;;;;;;;5110858;28;20207;-80
2024/01/23 00:06:37;;;;;;;11.90;7.77;;;;;;;;;;5110756;28;20211;-79
2024/01/23 00:09:04;;;;;;;12.80;8.53;;;;;;;;;;5110826;28;20214;-79
2024/01/23 00:11:31;;;;;;;15.17;8.30;;;;;;;;;;5111016;28;20227;-80
2024/01/23 00:13:59;;;;;;;16.63;10.10;;;;;;;;;;5110001;28;20673;-79
2024/01/23 00:16:26;;;;;;;46.20;23.30;;;;;;;;;;5110972;28;20230;-80
2024/01/23 00:18:56;;;;;;;37.90;20.17;;;;;;;;;;5110935;28;20208;-80
2024/01/23 00:21:23;;;;;;;21.03;12.53;;;;;;;;;;5110784;28;20207;-81
2024/01/23 00:23:51;;;;;;;16.27;10.37;;;;;;;;;;5110811;28;20207;-80
2024/01/23 00:26:18;;;;;;;10.00;6.27;;;;;;;;;;5110546;28;20298;-80
2024/01/23 00:28:45;;;;;;;7.83;5.50;;;;;;;;;;5110238;28;20227;-80
2024/01/23 00:31:13;;;;;;;7.40;6.13;;;;;;;;;;5110579;28;20235;-80
2024/01/23 00:33:40;;;;;;;8.73;5.80;;;;;;;;;;5113318;28;20191;-80
2024/01/23 00:36:07;;;;;;;9.03;7.07;;;;;;;;;;5103459;28;20211;-80
2024/01/23 00:38:34;;;;;;;9.47;6.57;;;;;;;;;;5112055;28;20207;-81
2024/01/23 00:41:01;;;;;;;7.80;6.60;;;;;;;;;;5114442;28;20212;-80
2024/01/23 00:43:28;;;;;;;6.27;5.67;;;;;;;;;;5113370;28;20199;-81
2024/01/23 00:45:58;;;;;;;16.63;5.03;;;;;;;;;;5114248;28;20253;-81
2024/01/23 00:48:26;;;;;;;24.87;11.77;;;;;;;;;;5113916;28;20603;-80
2024/01/23 00:50:55;;;;;;;104.20;50.10;;;;;;;;;;5114036;28;20655;-81
2024/01/23 00:53:22;;;;;;;115.70;48.77;;;;;;;;;;5113860;28;20445;-81
2024/01/23 00:55:48;;;;;;;52.27;28.40;;;;;;;;;;5114143;28;20203;-80
2024/01/23 00:58:15;;;;;;;37.73;18.17;;;;;;;;;;5114018;28;20223;-80
2024/01/23 01:00:44;;;;;;;15.33;10.87;;;;;;;;;;5114265;28;20207;-80
2024/01/23 01:03:11;;;;;;;13.40;8.63;;;;;;;;;;5113365;28;20986;-81
2024/01/23 01:05:39;;;;;;;13.23;7.43;;;;;;;;;;5113554;28;20982;-81
2024/01/23 01:08:06;;;;;;;9.63;6.57;;;;;;;;;;5101113;28;20195;-80
2024/01/23 01:10:33;;;;;;;9.53;5.90;;;;;;;;;;5113505;28;20445;-80
2024/01/23 01:13:00;;;;;;;9.37;5.57;;;;;;;;;;5113551;28;20195;-80
2024/01/23 01:15:27;;;;;;;5.87;5.17;;;;;;;;;;5113701;28;20204;-81
2024/01/23 01:17:54;;;;;;;8.40;5.47;;;;;;;;;;5112905;28;20220;-81
2024/01/23 01:20:20;;;;;;;13.23;7.60;;;;;;;;;;5113303;28;20970;-80
2024/01/23 01:22:48;;;;;;;11.23;7.93;;;;;;;;;;5113633;28;20202;-80
2024/01/23 01:25:15;;;;;;;8.67;5.63;;;;;;;;;;5113155;28;20208;-81
2024/01/23 01:27:42;;;;;;;10.43;6.80;;;;;;;;;;5112691;28;20195;-81
2024/01/23 01:30:09;;;;;;;12.83;9.27;;;;;;;;;;5113676;28;20257;-81
2024/01/23 01:32:36;;;;;;;7.10;5.40;;;;;;;;;;5113403;28;20210;-80
2024/01/23 01:35:03;;;;;;;8.37;4.77;;;;;;;;;;5113204;28;20196;-80
2024/01/23 01:37:30;;;;;;;9.93;6.33;;;;;;;;;;5113159;28;20314;-80
2024/01/23 01:39:58;;;;;;;7.70;6.60;;;;;;;;;;5112773;28;20670;-81
2024/01/23 01:42:25;;;;;;;6.67;5.90;;;;;;;;;;5113078;28;20211;-81
2024/01/23 01:44:52;;;;;;;7.07;5.87;;;;;;;;;;5112320;28;20788;-81
2024/01/23 01:47:19;;;;;;;8.70;6.13;;;;;;;;;;5113428;28;20597;-81
2024/01/23 01:49:46;;;;;;;18.90;9.07;;;;;;;;;;5112986;28;20219;-80
2024/01/23 01:52:13;;;;;;;16.20;9.23;;;;;;;;;;5113031;28;20203;-81
2024/01/23 01:54:42;;;;;;;16.10;10.23;;;;;;;;;;5112741;28;20207;-81
2024/01/23 01:57:11;;;;;;;8.50;7.53;;;;;;;;;;5113042;28;20372;-80
2024/01/23 01:59:37;;;;;;;9.90;7.47;;;;;;;;;;5112647;28;20199;-81
2024/01/23 02:02:07;;;;;;;7.00;5.60;;;;;;;;;;5113330;28;20464;-82
2024/01/23 02:04:33;;;;;;;7.13;5.37;;;;;;;;;;5112572;28;20206;-81
2024/01/23 02:07:00;;;;;;;7.87;5.27;;;;;;;;;;5112735;28;20207;-81
2024/01/23 02:09:27;;;;;;;5.87;4.60;;;;;;;;;;5112000;28;20264;-81
2024/01/23 02:11:57;;;;;;;9.23;5.80;;;;;;;;;;5113121;28;20199;-81
2024/01/23 02:14:26;;;;;;;11.13;7.67;;;;;;;;;;5112214;28;20635;-81
2024/01/23 02:16:52;;;;;;;8.83;6.13;;;;;;;;;;5112210;28;20476;-81
2024/01/23 02:19:19;;;;;;;7.97;5.87;;;;;;;;;;5112257;28;20212;-81
2024/01/23 02:21:46;;;;;;;8.17;5.83;;;;;;;;;;5112329;28;20450;-81
2024/01/23 02:24:16;;;;;;;5.40;4.87;;;;;;;;;;5112017;28;20195;-81
2024/01/23 02:26:42;;;;;;;6.87;5.10;;;;;;;;;;5112224;28;20207;-81
2024/01/23 02:29:10;;;;;;;6.70;5.00;;;;;;;;;;5111873;28;20473;-81
2024/01/23 02:31:37;;;;;;;8.10;6.13;;;;;;;;;;5112802;28;20631;-81
2024/01/23 02:34:03;;;;;;;6.33;5.73;;;;;;;;;;5111713;28;21035;-81
2024/01/23 02:36:34;;;;;;;5.90;4.80;;;;;;;;;;5098259;28;20462;-81
2024/01/23 02:39:02;;;;;;;6.07;5.03;;;;;;;;;;5111782;28;20210;-81
2024/01/23 02:41:30;;;;;;;5.40;4.57;;;;;;;;;;5111928;28;20445;-82
2024/01/23 02:43:57;;;;;;;6.53;4.87;;;;;;;;;;5111617;28;20203;-80
2024/01/23 02:46:24;;;;;;;6.40;5.20;;;;;;;;;;5112161;28;20206;-81
2024/01/23 02:48:50;;;;;;;6.77;6.07;;;;;;;;;;5111904;28;20228;-81
2024/01/23 02:51:19;;;;;;;8.60;6.17;;;;;;;;;;5098125;28;20816;-80
2024/01/23 02:53:46;;;;;;;7.77;5.23;;;;;;;;;;5112044;28;20552;-81
2024/01/23 02:56:13;;;;;;;6.83;4.77;;;;;;;;;;5110818;28;20472;-81
2024/01/23 02:58:42;;;;;;;6.00;5.03;;;;;;;;;;5111346;28;20495;-81
2024/01/23 03:01:09;;;;;;;5.23;4.73;;;;;;;;;;5111928;28;20195;-81
2024/01/23 03:03:36;;;;;;;7.23;5.67;;;;;;;;;;5111416;28;20699;-81
2024/01/23 03:06:02;;;;;;;4.67;4.27;;;;;;;;;;5111408;28;20452;-82
2024/01/23 03:08:29;;;;;;;7.93;6.07;;;;;;;;;;5111743;28;20441;-81
2024/01/23 03:10:56;;;;;;;7.50;6.17;;;;;;;;;;5111540;28;20863;-81
2024/01/23 03:13:23;;;;;;;9.67;5.60;;;;;;;;;;5111031;28;20582;-81
2024/01/23 03:15:52;;;;;;;5.73;4.57;;;;;;;;;;5111445;28;20449;-82
2024/01/23 03:18:19;;;;;;;4.90;4.40;;;;;;;;;;5110980;28;20492;-81
2024/01/23 03:20:47;;;;;;;6.23;5.23;;;;;;;;;;5111009;28;20455;-81
2024/01/23 03:23:14;;;;;;;6.30;4.80;;;;;;;;;;5110984;28;20253;-82
2024/01/23 03:25:40;;;;;;;5.73;5.03;;;;;;;;;;5111174;28;20514;-82
2024/01/23 03:28:07;;;;;;;6.87;5.90;;;;;;;;;;5110842;28;20279;-82
2024/01/23 03:30:34;;;;;;;14.33;7.10;;;;;;;;;;5097431;28;20479;-82
2024/01/23 03:33:02;;;;;;;18.23;8.73;;;;;;;;;;5110853;28;20510;-82
2024/01/23 03:35:29;;;;;;;77.30;32.97;;;;;;;;;;5110810;28;20449;-84
2024/01/23 03:37:56;;;;;;;340.23;126.30;;;;;;;;;;5110924;28;20877;-81
2024/01/23 03:40:23;;;;;;;117.93;50.47;;;;;;;;;;5110949;28;20528;-81
2024/01/23 03:42:50;;;;;;;30.43;15.57;;;;;;;;;;5110841;28;20453;-81
2024/01/23 03:45:17;;;;;;;14.77;8.40;;;;;;;;;;5110714;28;20444;-82
2024/01/23 03:47:44;;;;;;;18.33;11.53;;;;;;;;;;5111030;28;20200;-81
2024/01/23 03:50:12;;;;;;;13.33;9.10;;;;;;;;;;5110848;28;20449;-81
2024/01/23 03:52:39;;;;;;;16.67;8.33;;;;;;;;;;5110776;28;20509;-80
2024/01/23 03:55:06;;;;;;;16.00;10.97;;;;;;;;;;5110895;28;20872;-81
2024/01/23 03:57:33;;;;;;;56.07;31.20;;;;;;;;;;5110582;28;20472;-83
2024/01/23 04:00:00;;;;;;;56.93;33.50;;;;;;;;;;5097280;28;20820;-82
2024/01/23 04:02:27;;;;;;;32.20;20.13;;;;;;;;;;5110934;28;20449;-80
2024/01/23 04:04:55;;;;;;;20.90;14.30;;;;;;;;;;5097414;28;20448;-81
2024/01/23 04:07:23;;;;;;;15.93;9.53;;;;;;;;;;5112634;28;20543;-81
2024/01/23 04:09:50;;;;;;;11.80;8.57;;;;;;;;;;5115194;28;20452;-81
2024/01/23 04:12:17;;;;;;;8.93;7.03;;;;;;;;;;5114849;28;20455;-81
2024/01/23 04:14:44;;;;;;;9.30;6.67;;;;;;;;;;5114028;28;20495;-81
2024/01/23 04:17:10;;;;;;;10.00;6.93;;;;;;;;;;5115002;28;20441;-81
2024/01/23 04:19:37;;;;;;;10.93;6.83;;;;;;;;;;5114994;28;20460;-81
2024/01/23 04:22:04;;;;;;;11.23;7.33;;;;;;;;;;5114205;28;20473;-81
2024/01/23 04:24:33;;;;;;;11.90;6.87;;;;;;;;;;5114257;28;20451;-81
2024/01/23 04:26:59;;;;;;;10.23;6.77;;;;;;;;;;5114716;28;20445;-83
2024/01/23 04:29:26;;;;;;;7.03;5.30;;;;;;;;;;5114445;28;20543;-81
2024/01/23 04:31:56;;;;;;;9.17;7.10;;;;;;;;;;5114652;28;20441;-81
2024/01/23 04:34:22;;;;;;;8.20;6.20;;;;;;;;;;5114249;28;20441;-81
2024/01/23 04:36:49;;;;;;;12.77;8.40;;;;;;;;;;5114382;28;20500;-81
2024/01/23 04:39:17;;;;;;;12.10;7.80;;;;;;;;;;5114118;28;20480;-81
2024/01/23 04:41:45;;;;;;;7.47;6.27;;;;;;;;;;5114588;28;20468;-81
2024/01/23 04:44:12;;;;;;;6.47;5.20;;;;;;;;;;5114212;28;20445;-81
2024/01/23 04:46:39;;;;;;;6.13;4.60;;;;;;;;;;5114003;28;20532;-81
2024/01/23 04:49:05;;;;;;;6.13;5.53;;;;;;;;;;5114133;28;20445;-82
2024/01/23 04:51:34;;;;;;;6.53;5.37;;;;;;;;;;5114194;28;20444;-82
2024/01/23 04:54:01;;;;;;;11.23;7.33;;;;;;;;;;5114238;28;20827;-81
2024/01/23 04:56:27;;;;;;;10.43;7.73;;;;;;;;;;5113841;28;20456;-81
2024/01/23 04:58:55;;;;;;;6.20;5.60;;;;;;;;;;5113859;28;20481;-82
2024/01/23 05:01:22;;;;;;;7.83;6.83;;;;;;;;;;5113890;28;20496;-81
2024/01/23 05:03:49;;;;;;;12.40;6.10;;;;;;;;;;5113874;28;20449;-81
2024/01/23 05:06:17;;;;;;;7.43;5.83;;;;;;;;;;5113749;28;20452;-81
2024/01/23 05:08:44;;;;;;;5.87;4.97;;;;;;;;;;5113517;28;20449;-81
2024/01/23 05:11:11;;;;;;;8.13;5.63;;;;;;;;;;5113698;28;20445;-81
2024/01/23 05:13:38;;;;;;;9.87;6.13;;;;;;;;;;5113645;28;20452;-82
2024/01/23 05:16:06;;;;;;;9.43;5.80;;;;;;;;;;5113491;28;20441;-81
2024/01/23 05:18:33;;;;;;;6.97;5.73;;;;;;;;;;5112832;28;20227;-81
2024/01/23 05:21:00;;;;;;;7.40;6.20;;;;;;;;;;5113320;28;20449;-83
2024/01/23 05:23:27;;;;;;;8.20;5.27;;;;;;;;;;5113832;28;20550;-81
2024/01/23 05:25:56;;;;;;;8.00;5.27;;;;;;;;;;5113319;28;20452;-81
2024/01/23 05:28:23;;;;;;;6.10;5.50;;;;;;;;;;5112752;28;20445;-82
2024/01/23 05:30:49;;;;;;;8.30;6.53;;;;;;;;;;5113412;28;20469;-81
2024/01/23 05:33:18;;;;;;;12.70;9.33;;;;;;;;;;5113188;28;20450;-82
2024/01/23 05:35:45;;;;;;;11.13;8.03;;;;;;;;;;5113608;28;20453;-82
2024/01/23 05:38:11;;;;;;;8.80;6.30;;;;;;;;;;5112669;28;20480;-82
2024/01/23 05:40:38;;;;;;;6.83;5.60;;;;;;;;;;5113535;28;20452;-81
2024/01/23 05:43:05;;;;;;;6.50;5.10;;;;;;;;;;5112714;28;20441;-82
2024/01/23 05:45:32;;;;;;;8.83;6.73;;;;;;;;;;5113070;28;20203;-82
2024/01/23 05:47:58;;;;;;;13.13;10.57;;;;;;;;;;5112778;28;20472;-81
2024/01/23 05:50:26;;;;;;;20.37;14.27;;;;;;;;;;5113071;28;20990;-82
2024/01/23 05:52:56;;;;;;;25.10;15.70;;;;;;;;;;5112187;28;20441;-82
2024/01/23 05:55:23;;;;;;;18.27;13.40;;;;;;;;;;5112984;28;20453;-82
2024/01/23 05:57:50;;;;;;;21.97;16.40;;;;;;;;;;5098822;28;21200;-81
2024/01/23 06:00:17;;;;;;;16.77;12.93;;;;;;;;;;5112361;28;20456;-81
2024/01/23 06:02:44;;;;;;;11.47;9.17;;;;;;;;;;5112831;28;20699;-81
2024/01/23 06:05:11;;;;;;;14.93;9.70;;;;;;;;;;5113127;28;20457;-81
2024/01/23 06:07:41;;;;;;;13.60;8.80;;;;;;;;;;5112097;28;20449;-81
2024/01/23 06:10:09;;;;;;;20.87;12.57;;;;;;;;;;5112626;28;20457;-81
2024/01/23 06:12:36;;;;;;;18.33;11.07;;;;;;;;;;5112164;28;20918;-81
2024/01/23 06:15:04;;;;;;;10.40;7.13;;;;;;;;;;5112724;28;20460;-82
2024/01/23 06:17:30;;;;;;;9.77;6.87;;;;;;;;;;5112025;28;20971;-82
2024/01/23 06:19:57;;;;;;;10.73;7.03;;;;;;;;;;5112275;28;20914;-81
2024/01/23 06:22:24;;;;;;;7.13;6.33;;;;;;;;;;5111906;28;20441;-81
2024/01/23 06:25:06;;;;;;;6.20;5.23;;;;;;;;;;5112333;28;20471;-81
2024/01/23 06:27:33;;;;;;;9.57;6.10;;;;;;;;;;5098695;28;20452;-81
2024/01/23 06:30:00;;;;;;;7.27;6.40;;;;;;;;;;5111256;28;20469;-83
2024/01/23 06:32:27;;;;;;;7.07;5.37;;;;;;;;;;5111881;28;20444;-81
2024/01/23 06:34:54;;;;;;;7.83;5.63;;;;;;;;;;5112263;28;20444;-81
2024/01/23 06:37:22;;;;;;;7.00;5.20;;;;;;;;;;5112182;28;20844;-81
2024/01/23 06:39:49;;;;;;;7.00;5.00;;;;;;;;;;5111744;28;20485;-81
2024/01/23 06:42:17;;;;;;;5.03;4.53;;;;;;;;;;5112024;28;20456;-81
2024/01/23 06:44:43;;;;;;;6.00;4.00;;;;;;;;;;5111735;28;20846;-81
2024/01/23 06:47:10;;;;;;;6.67;5.13;;;;;;;;;;5111968;28;21006;-81
2024/01/23 06:49:37;;;;;;;6.67;5.23;;;;;;;;;;5111517;28;20476;-81
2024/01/23 06:52:05;;;;;;;6.60;4.73;;;;;;;;;;5111631;28;20445;-80
2024/01/23 06:54:34;;;;;;;6.20;4.10;;;;;;;;;;5111173;28;20674;-80
2024/01/23 06:57:01;;;;;;;43.10;20.03;;;;;;;;;;5112243;28;20445;-79
2024/01/23 06:59:29;;;;;;;132.60;47.27;;;;;;;;;;5111275;28;20258;-79
2024/01/23 07:01:56;;;;;;;71.80;31.50;;;;;;;;;;5111899;28;20196;-79
2024/01/23 07:04:23;;;;;;;163.13;71.57;;;;;;;;;;5110940;28;20863;-79
2024/01/23 07:06:50;;;;;;;35.67;20.53;;;;;;;;;;5111656;28;20449;-79
2024/01/23 07:09:18;;;;;;;18.27;10.87;;;;;;;;;;5111213;28;20460;-80
2024/01/23 07:11:46;;;;;;;7.80;6.93;;;;;;;;;;5111064;28;20203;-80
2024/01/23 07:14:13;;;;;;;8.77;7.30;;;;;;;;;;5111185;28;20203;-80
2024/01/23 07:16:41;;;;;;;11.77;8.80;;;;;;;;;;5111661;28;20256;-79
2024/01/23 07:19:08;;;;;;;13.63;9.73;;;;;;;;;;5111131;28;20276;-79
2024/01/23 07:21:35;;;;;;;13.23;8.83;;;;;;;;;;5111343;28;20650;-79
2024/01/23 07:24:02;;;;;;;10.93;8.23;;;;;;;;;;5110469;28;20195;-79
2024/01/23 07:26:29;;;;;;;23.43;12.40;;;;;;;;;;5111241;28;20651;-77
2024/01/23 07:28:56;;;;;;;15.20;8.43;;;;;;;;;;5110588;28;20262;-77
2024/01/23 07:31:22;;;;;;;10.20;7.90;;;;;;;;;;5111567;28;20199;-77
2024/01/23 07:33:51;;;;;;;10.27;8.47;;;;;;;;;;5110423;28;20195;-77
2024/01/23 07:36:18;;;;;;;11.00;8.17;;;;;;;;;;5111216;28;20203;-78
2024/01/23 07:38:47;;;;;;;24.23;14.37;;;;;;;;;;5111168;28;20276;-77
2024/01/23 07:41:16;;;;;;;14.00;9.37;;;;;;;;;;5110916;28;20210;-77
2024/01/23 07:43:44;;;;;;;16.63;11.07;;;;;;;;;;5110211;28;20206;-77
2024/01/23 07:46:10;;;;;;;13.87;9.93;;;;;;;;;;5111629;28;20200;-77
2024/01/23 07:48:37;;;;;;;11.57;7.90;;;;;;;;;;5110863;28;20207;-77
2024/01/23 07:51:06;;;;;;;31.73;19.60;;;;;;;;;;5111068;28;20210;-77
2024/01/23 07:53:33;;;;;;;32.73;21.37;;;;;;;;;;5097393;28;20210;-76
2024/01/23 07:56:00;;;;;;;26.17;16.53;;;;;;;;;;5110811;28;20282;-76
2024/01/23 07:58:27;;;;;;;32.20;21.60;;;;;;;;;;5110991;28;20203;-76
2024/01/23 08:00:54;;;;;;;29.77;20.27;;;;;;;;;;5111025;28;20223;-77
2024/01/23 08:03:21;;;;;;;28.93;18.10;;;;;;;;;;5110880;28;20200;-76
2024/01/23 08:05:47;;;;;;;22.63;15.17;;;;;;;;;;5110626;28;20619;-77
2024/01/23 08:08:16;;;;;;;18.07;13.53;;;;;;;;;;5110684;28;20195;-76
2024/01/23 08:10:43;;;;;;;14.73;11.67;;;;;;;;;;5110591;28;20747;-75
2024/01/23 08:13:10;;;;;;;13.50;10.47;;;;;;;;;;5110483;28;20196;-76
2024/01/23 08:15:36;;;;;;;12.07;10.30;;;;;;;;;;5110911;28;20202;-76
2024/01/23 08:18:06;;;;;;;11.03;8.80;;;;;;;;;;5110692;28;20206;-78
2024/01/23 08:20:33;;;;;;;11.03;8.07;;;;;;;;;;5110665;28;20228;-76
2024/01/23 08:23:00;;;;;;;9.70;8.13;;;;;;;;;;5110240;28;20651;-76
2024/01/23 08:25:28;;;;;;;13.43;7.60;;;;;;;;;;5110540;28;20199;-76
2024/01/23 08:27:55;;;;;;;8.17;6.60;;;;;;;;;;5100779;28;20755;-77
2024/01/23 08:30:22;;;;;;;8.57;7.30;;;;;;;;;;5107025;28;20238;-77
2024/01/23 08:32:49;;;;;;;11.70;8.83;;;;;;;;;;5110846;28;20203;-77
2024/01/23 08:35:17;;;;;;;9.10;8.17;;;;;;;;;;5110875;28;20208;-77
2024/01/23 08:37:44;;;;;;;5.77;5.07;;;;;;;;;;5110483;28;20264;-77
2024/01/23 08:40:11;;;;;;;6.67;4.57;;;;;;;;;;5110164;28;20293;-77
2024/01/23 08:42:40;;;;;;;5.53;3.87;;;;;;;;;;5110778;28;20306;-77
2024/01/23 08:45:08;;;;;;;5.27;4.40;;;;;;;;;;5109921;28;20196;-77
2024/01/23 08:47:35;;;;;;;4.70;4.10;;;;;;;;;;5110369;28;20200;-79
2024/01/23 08:50:01;;;;;;;5.93;4.93;;;;;;;;;;5110623;28;20199;-77
2024/01/23 08:52:28;;;;;;;6.70;4.30;;;;;;;;;;5109801;28;20630;-77
2024/01/23 08:54:58;;;;;;;3.90;3.50;;;;;;;;;;5112988;28;20210;-77
2024/01/23 08:57:25;;;;;;;4.10;3.37;;;;;;;;;;5113892;28;20218;-78
2024/01/23 08:59:56;;;;;;;4.10;3.33;;;;;;;;;;5113151;28;20223;-78
2024/01/23 09:02:23;;;;;;;3.40;3.10;;;;;;;;;;5114285;28;20204;-78
2024/01/23 09:04:49;;;;;;;4.00;3.43;;;;;;;;;;5113949;28;20192;-78
2024/01/23 09:07:18;;;;;;;3.43;3.07;;;;;;;;;;5113822;28;20203;-78
2024/01/23 09:09:45;;;;;;;3.33;2.90;;;;;;;;;;5113531;28;20199;-78
2024/01/23 09:12:12;;;;;;;5.37;3.07;;;;;;;;;;5113762;28;20677;-78
2024/01/23 09:14:38;;;;;;;4.80;4.03;;;;;;;;;;5113454;28;20191;-79
2024/01/23 09:17:07;;;;;;;4.43;3.83;;;;;;;;;;5113428;28;20196;-79
2024/01/23 09:19:33;;;;;;;5.83;4.67;;;;;;;;;;5113540;28;20291;-78
2024/01/23 09:22:00;;;;;;;5.97;4.23;;;;;;;;;;5099748;28;20204;-79
2024/01/23 09:24:27;;;;;;;4.60;4.13;;;;;;;;;;5113888;28;20343;-79
2024/01/23 09:26:58;;;;;;;6.07;4.47;;;;;;;;;;5113198;28;20204;-78
2024/01/23 09:29:25;;;;;;;4.87;4.27;;;;;;;;;;5112948;28;20230;-79
2024/01/23 09:31:52;;;;;;;5.33;4.83;;;;;;;;;;5113244;28;20203;-79
2024/01/23 09:34:20;;;;;;;8.83;4.67;;;;;;;;;;5113639;28;20222;-79
2024/01/23 09:36:47;;;;;;;6.33;5.13;;;;;;;;;;5113177;28;20203;-79
2024/01/23 09:39:14;;;;;;;7.50;5.70;;;;;;;;;;5112802;28;20722;-79
2024/01/23 09:41:45;;;;;;;10.30;5.60;;;;;;;;;;5113490;28;20192;-79
2024/01/23 09:44:12;;;;;;;9.57;7.83;;;;;;;;;;5113226;28;20227;-79
2024/01/23 09:46:39;;;;;;;9.20;7.23;;;;;;;;;;5113171;28;20196;-79
2024/01/23 09:49:06;;;;;;;9.97;7.87;;;;;;;;;;5112999;28;20199;-79
2024/01/23 09:51:35;;;;;;;9.90;8.27;;;;;;;;;;5112788;28;20280;-79
2024/01/23 09:54:02;;;;;;;9.50;8.57;;;;;;;;;;5113274;28;20571;-79
2024/01/23 09:56:29;;;;;;;12.07;9.33;;;;;;;;;;5112818;28;20203;-79
2024/01/23 09:58:56;;;;;;;13.80;10.30;;;;;;;;;;5112689;28;20200;-79
2024/01/23 10:01:23;;;;;;;12.17;9.57;;;;;;;;;;5112746;28;20202;-79
2024/01/23 10:03:55;;;;;;;14.57;8.77;;;;;;;;;;5113040;28;20199;-79
2024/01/23 10:06:22;;;;;;;10.23;8.83;;;;;;;;;;5098934;28;20207;-79
2024/01/23 10:08:50;;;;;;;14.00;9.93;;;;;;;;;;5112734;28;20248;-78
2024/01/23 10:11:19;;;;;;;13.50;8.83;;;;;;;;;;5099509;28;20191;-79
2024/01/23 10:13:48;;;;;;;10.63;8.27;;;;;;;;;;5112202;28;20214;-79
2024/01/23 10:16:17;;;;;;;15.47;8.93;;;;;;;;;;5112695;28;20615;-78
2024/01/23 10:18:47;;;;;;;10.27;8.03;;;;;;;;;;5111846;28;20726;-78
2024/01/23 10:21:15;;;;;;;8.80;7.37;;;;;;;;;;5112325;28;20219;-78
2024/01/23 10:23:42;;;;;;;9.57;7.67;;;;;;;;;;5111893;28;20199;-78
2024/01/23 10:26:10;;;;;;;8.13;7.23;;;;;;;;;;5112021;28;20666;-78
2024/01/23 10:28:37;;;;;;;8.20;5.87;;;;;;;;;;5112117;28;20211;-78
2024/01/23 10:31:04;;;;;;;8.47;7.63;;;;;;;;;;5112150;28;20278;-78
2024/01/23 10:33:32;;;;;;;11.50;8.53;;;;;;;;;;5112293;28;20200;-78
2024/01/23 10:35:59;;;;;;;24.37;13.97;;;;;;;;;;5112050;28;20207;-78
2024/01/23 10:38:26;;;;;;;7.37;6.33;;;;;;;;;;5111555;28;20201;-77
2024/01/23 10:40:56;;;;;;;9.87;8.13;;;;;;;;;;5112410;28;20235;-77
2024/01/23 10:43:24;;;;;;;8.90;6.97;;;;;;;;;;5111096;28;20210;-78
2024/01/23 10:45:56;;;;;;;9.03;5.93;;;;;;;;;;5111894;28;20199;-77
2024/01/23 10:48:23;;;;;;;10.97;6.47;;;;;;;;;;5111104;28;20239;-78
2024/01/23 10:50:53;;;;;;;17.27;11.30;;;;;;;;;;5111883;28;20200;-78
2024/01/23 10:53:22;;;;;;;5.93;5.43;;;;;;;;;;5111605;28;20214;-78
2024/01/23 10:55:50;;;;;;;8.87;7.13;;;;;;;;;;5111927;28;20227;-78
2024/01/23 10:58:21;;;;;;;12.27;7.77;;;;;;;;;;5111275;28;20199;-78
2024/01/23 11:00:51;;;;;;;7.60;6.77;;;;;;;;;;5111667;28;20282;-77
2024/01/23 11:03:18;;;;;;;6.57;5.63;;;;;;;;;;5097905;28;20665;-78
2024/01/23 11:05:49;;;;;;;6.00;5.13;;;;;;;;;;5111188;28;20700;-77
2024/01/23 11:08:20;;;;;;;7.13;5.37;;;;;;;;;;5111358;28;20582;-78
2024/01/23 11:10:54;;;;;;;6.40;5.80;;;;;;;;;;5111643;28;20210;-77
2024/01/23 11:13:26;;;;;;;6.23;5.57;;;;;;;;;;5111444;28;20207;-78
2024/01/23 11:15:57;;;;;;;6.13;5.43;;;;;;;;;;5110440;28;20200;-77
2024/01/23 11:18:26;;;;;;;7.17;5.53;;;;;;;;;;5111051;28;20203;-78
2024/01/23 11:21:24;;;;;;;6.23;5.60;;;;;;;;;;5111215;28;20222;-78
2024/01/23 11:23:59;;;;;;;7.40;4.77;;;;;;;;;;5111045;28;20208;-78
2024/01/23 11:26:27;;;;;;;6.67;4.90;;;;;;;;;;5111332;28;20199;-78
2024/01/23 11:28:57;;;;;;;11.83;5.57;;;;;;;;;;5110748;28;20230;-78
2024/01/23 11:31:28;;;;;;;7.03;6.33;;;;;;;;;;5111319;28;20676;-78
2024/01/23 11:34:38;;;;;;;6.80;5.27;;;;;;;;;;5110926;28;20195;-78
2024/01/23 11:37:05;;;;;;;6.00;4.40;;;;;;;;;;5110909;28;20192;-77
2024/01/23 11:39:34;;;;;;;16.37;10.50;;;;;;;;;;5110860;28;20196;-77
2024/01/23 11:42:01;;;;;;;5.97;5.37;;;;;;;;;;5110896;28;20192;-77
2024/01/23 11:44:28;;;;;;;5.37;4.87;;;;;;;;;;5111490;28;20620;-77
2024/01/23 11:47:03;;;;;;;5.93;4.93;;;;;;;;;;5110974;28;20199;-78
2024/01/23 11:49:30;;;;;;;5.30;4.80;;;;;;;;;;5110097;28;20744;-78
2024/01/23 11:51:58;;;;;;;5.33;4.80;;;;;;;;;;5111039;28;20585;-77
2024/01/23 11:54:25;;;;;;;4.30;3.90;;;;;;;;;;5110861;28;20384;-77
2024/01/23 11:56:52;;;;;;;4.83;4.40;;;;;;;;;;5111219;28;20199;-78
2024/01/23 11:59:19;;;;;;;4.43;4.03;;;;;;;;;;5110927;28;20204;-78
2024/01/23 12:01:46;;;;;;;3.93;3.50;;;;;;;;;;5110980;28;20227;-78
2024/01/23 12:04:17;;;;;;;4.97;3.67;;;;;;;;;;5110854;28;20199;-78
2024/01/23 12:06:44;;;;;;;5.43;4.93;;;;;;;;;;5110916;28;20211;-78
2024/01/23 12:09:11;;;;;;;4.07;3.67;;;;;;;;;;5110486;28;20211;-77
2024/01/23 12:11:38;;;;;;;6.67;4.70;;;;;;;;;;5110767;28;20616;-78
2024/01/23 12:14:05;;;;;;;5.33;3.57;;;;;;;;;;5110863;28;20595;-78
2024/01/23 12:16:32;;;;;;;5.03;4.43;;;;;;;;;;5110627;28;20852;-78
2024/01/23 12:18:59;;;;;;;4.67;4.20;;;;;;;;;;5110287;28;20196;-78
2024/01/23 12:21:27;;;;;;;3.63;3.27;;;;;;;;;;5110596;28;20650;-78
2024/01/23 12:23:57;;;;;;;5.10;3.40;;;;;;;;;;5109909;28;20253;-78
2024/01/23 12:26:24;;;;;;;3.83;3.17;;;;;;;;;;5110811;28;20203;-78
2024/01/23 12:28:51;;;;;;;5.03;3.70;;;;;;;;;;5110775;28;20605;-78
2024/01/23 12:31:19;;;;;;;3.90;3.40;;;;;;;;;;5114321;28;20200;-78
2024/01/23 12:33:48;;;;;;;3.97;3.53;;;;;;;;;;5114774;28;20296;-78
2024/01/23 12:36:16;;;;;;;6.67;3.27;;;;;;;;;;5114469;28;20204;-78
2024/01/23 12:38:44;;;;;;;5.00;3.90;;;;;;;;;;5113818;28;20257;-78
2024/01/23 12:41:11;;;;;;;5.43;3.87;;;;;;;;;;5114698;28;20223;-77
2024/01/23 12:43:39;;;;;;;5.27;3.47;;;;;;;;;;5114345;28;20324;-78
2024/01/23 12:46:05;;;;;;;3.97;3.57;;;;;;;;;;5114242;28;20211;-77
2024/01/23 12:48:32;;;;;;;5.47;3.63;;;;;;;;;;5114033;28;20202;-78
2024/01/23 12:50:59;;;;;;;4.57;3.87;;;;;;;;;;5114441;28;20199;-77
2024/01/23 12:53:27;;;;;;;4.03;3.63;;;;;;;;;;5113803;28;20199;-77
2024/01/23 12:55:56;;;;;;;41.50;20.17;;;;;;;;;;5114046;28;20207;-78
2024/01/23 12:58:22;;;;;;;33.53;17.87;;;;;;;;;;5113561;28;20204;-78
2024/01/23 13:00:49;;;;;;;30.20;16.27;;;;;;;;;;5113896;28;20223;-77
2024/01/23 13:03:17;;;;;;;25.77;14.40;;;;;;;;;;5113753;28;20286;-77
2024/01/23 13:05:44;;;;;;;17.93;9.03;;;;;;;;;;5113948;28;20210;-77
2024/01/23 13:08:11;;;;;;;8.67;6.93;;;;;;;;;;5114232;28;20219;-77
2024/01/23 13:10:38;;;;;;;10.20;7.00;;;;;;;;;;5113425;28;20203;-77
2024/01/23 13:13:07;;;;;;;9.37;7.43;;;;;;;;;;5113855;28;20287;-77
2024/01/23 13:15:34;;;;;;;14.57;10.63;;;;;;;;;;5113530;28;20686;-77
2024/01/23 13:18:01;;;;;;;8.77;6.70;;;;;;;;;;5113402;28;20662;-77
2024/01/23 13:20:27;;;;;;;15.13;9.60;;;;;;;;;;5113294;28;20656;-77
2024/01/23 13:22:54;;;;;;;12.33;9.87;;;;;;;;;;5113647;28;20203;-77
2024/01/23 13:25:21;;;;;;;9.53;7.17;;;;;;;;;;5113030;28;20207;-77
2024/01/23 13:27:49;;;;;;;7.17;5.73;;;;;;;;;;5113275;28;20211;-77
2024/01/23 13:30:18;;;;;;;24.27;14.00;;;;;;;;;;5113415;28;20262;-78
2024/01/23 13:32:50;;;;;;;11.00;7.63;;;;;;;;;;5113504;28;20214;-79
2024/01/23 13:35:18;;;;;;;15.93;10.53;;;;;;;;;;5113486;28;20219;-77
2024/01/23 13:37:45;;;;;;;30.87;18.13;;;;;;;;;;5113071;28;20257;-77
2024/01/23 13:40:12;;;;;;;22.97;14.10;;;;;;;;;;5112168;28;20666;-77
2024/01/23 13:42:40;;;;;;;28.63;17.27;;;;;;;;;;5112912;28;20214;-77
2024/01/23 13:45:09;;;;;;;15.57;10.93;;;;;;;;;;5113112;28;20678;-77
2024/01/23 13:47:39;;;;;;;13.63;8.90;;;;;;;;;;5112487;28;20253;-78
2024/01/23 13:50:06;;;;;;;18.80;14.13;;;;;;;;;;5112970;28;20207;-77
2024/01/23 13:52:33;;;;;;;11.87;8.07;;;;;;;;;;5100182;28;20261;-77
2024/01/23 13:55:00;;;;;;;16.63;11.20;;;;;;;;;;5112408;28;20200;-77
2024/01/23 13:57:27;;;;;;;16.33;12.10;;;;;;;;;;5112927;28;20207;-77
2024/01/23 13:59:56;;;;;;;9.73;7.23;;;;;;;;;;5112763;28;20282;-77
2024/01/23 14:02:23;;;;;;;13.00;8.80;;;;;;;;;;5112739;28;20219;-77
2024/01/23 14:04:52;;;;;;;10.80;8.53;;;;;;;;;;5112805;28;20235;-77
2024/01/23 14:07:18;;;;;;;8.37;7.37;;;;;;;;;;5112819;28;20267;-78
2024/01/23 14:09:46;;;;;;;6.73;6.00;;;;;;;;;;5112800;28;20206;-77
2024/01/23 14:12:12;;;;;;;9.17;5.97;;;;;;;;;;5112034;28;20252;-77
2024/01/23 14:14:39;;;;;;;9.23;7.47;;;;;;;;;;5112448;28;20214;-77
2024/01/23 14:17:06;;;;;;;19.00;12.80;;;;;;;;;;5111965;28;20200;-77
2024/01/23 14:19:33;;;;;;;24.87;14.47;;;;;;;;;;5112111;28;20199;-77
2024/01/23 14:22:01;;;;;;;14.03;8.30;;;;;;;;;;5112003;28;20238;-77
2024/01/23 14:24:28;;;;;;;13.57;10.70;;;;;;;;;;5112255;28;20214;-77
2024/01/23 14:26:55;;;;;;;14.70;10.33;;;;;;;;;;5112314;28;20309;-77
2024/01/23 14:29:22;;;;;;;10.63;8.83;;;;;;;;;;5112257;28;20235;-77
2024/01/23 14:31:49;;;;;;;14.60;9.53;;;;;;;;;;5111768;28;20210;-77
2024/01/23 14:34:16;;;;;;;8.17;5.43;;;;;;;;;;5111605;28;20681;-77
2024/01/23 14:36:43;;;;;;;9.70;8.30;;;;;;;;;;5112102;28;20199;-77